Moffett Field, CA

6:31 PM PDT on September 16, 2014 (GMT -0700)
Moffett Federal Air Field | Change Station
CLOSE
Current Station
Airport
Location: Moffett NAS,
Elevation: 39 ft
Nearby Weather Stations

Elev 39 ft 37.41 °N, 122.05 °W | Updated 35 minutes ago

Clear
Clear
75 °F
Feels Like 75 °F
N
9
Wind Variable Wind from NNW
Gusts 17 mph

Today
High -- | Low -- °F
--% Chance of Precip.
Yesterday
High -- | Low -- °F
Precip. -- in
6:51 AM 7:14 PM
Last Quarter, 40% visible
Pressure 29.83 in
Visibility 10.0 miles
Clouds Clear
Dew Point 59 °F
Humidity 57%
Rainfall 0.04 in
Snow Depth 2 in , 0 in
UV 1 out of 12
Pollen 5.20 out of 12
PM2.5 Good
Flu Activity Not available.
METAR KNUQ 170056Z 34008G15KT 10SM CLR 24/15 A2982 RMK AO2 SLP099 T02390150

More Conditions Fewer Conditions

Pressure 29.83 in
Visibility 10.0 miles
Clouds Clear
Dew Point 59 °F
Humidity 57%
Rainfall 0.04 in
Snow Depth 2 in , 0 in
UV 1 out of 12
Pollen 5.20 out of 12
PM2.5 Good
Flu Activity Not available.
METAR KNUQ 170056Z 34008G15KT 10SM CLR 24/15 A2982 RMK AO2 SLP099 T02390150

More Conditions Fewer Conditions

10-Day Weather Forecast

Almanac

Astronomy

Sep. 16, 2014 Rise Set
Actual Time 6:51 AM PDT 7:14 PM PDT
Civil Twilight 6:24 AM PDT 7:40 PM PDT
Nautical Twilight 5:54 AM PDT 8:11 PM PDT
Astronomical Twilight 5:22 AM PDT 8:42 PM PDT
Moon 12:10 AM PDT (9/16) 2:37 PM PDT (9/16)
Length of Visible Light 13h 15m
Length of Day
12h 23m
Tomorrow will be 2m 22s shorter.
Last Quarter, 40% of the Moon is Illuminated
Today
Last Quarter
Sep 24
New
Oct 1
First Quarter
Oct 8
Full
Oct 15
Last Quarter

Today's Extremes

State Highs State Lows

Community

WunderPhotos

Upload Photos

1,753,943 photos uploaded!

Nearby

Air Quality

  Air Quality AQ Index Pollutant
Yesterday Good
PM2.5
Yesterday Good
OZONE
Current Good
PM2.5
Tuesday Good
PM2.5
Wednesday Good
OZONE
Thursday Good
OZONE
Friday Good
OZONE
Saturday Good
OZONE
Sunday Good
OZONE

Snow Depth

Station Depth Elevation
CSS Lab 2 in 6900 ft
Leavitt Meadows 0 in 7200 ft
Adin Mountain 0 in 6200 ft

Earthquake Activity

City Distance Mag. Time & Date
Cobb, California 101 miles 2.7 1:23 PM PDT
2014-09-16
Cobb, California 105 miles 2.7 11:07 AM PDT
2014-09-14
Minimum magnitude displayed is 2.5.

Coastal Water Temperatures

Place Temperature
No Stations Reporting

Nearby Weather Stations